Time;durP1;ratioP1;P1;durP2;ratioP2;P2;SDS_P1;SDS_P2;PMS_P1;PMS_P2;Temp;Humidity;BMP_temperature;BMP_pressure;BME280_temperature;BME280_humidity;BME280_pressure;Samples;Min_cycle;Max_cycle;Signal;HPM_P1;HPM_P2
2022/04/04 00:01:51;;;;;;;13.00;10.00;;;2.90;81.50;;;;;;6258004;28;20190;-61
2022/04/04 00:04:52;;;;;;;13.20;10.97;;;2.90;82.50;;;;;;6268135;28;20193;-61
2022/04/04 00:07:53;;;;;;;11.37;9.63;;;2.70;81.60;;;;;;6240750;28;20193;-60
2022/04/04 00:10:54;;;;;;;15.83;10.93;;;2.60;81.00;;;;;;6240038;28;20281;-60
2022/04/04 00:13:55;;;;;;;14.70;11.97;;;2.60;82.00;;;;;;6240896;28;20214;-61
2022/04/04 00:16:56;;;;;;;15.47;11.73;;;2.50;83.10;;;;;;6275872;28;20203;-60
2022/04/04 00:19:57;;;;;;;16.53;11.13;;;2.50;82.80;;;;;;6264679;28;20315;-60
2022/04/04 00:22:57;;;;;;;17.93;12.70;;;2.40;82.70;;;;;;6226031;28;20197;-61
2022/04/04 00:25:58;;;;;;;14.77;12.30;;;2.30;84.10;;;;;;6233487;28;20194;-61
2022/04/04 00:28:59;;;;;;;17.17;12.93;;;2.30;83.30;;;;;;6261063;28;20236;-62
2022/04/04 00:32:00;;;;;;;17.03;13.47;;;2.20;85.30;;;;;;6261407;28;20197;-61
2022/04/04 00:35:00;;;;;;;18.87;13.87;;;2.30;87.30;;;;;;6246904;28;20264;-62
2022/04/04 00:38:03;;;;;;;17.97;13.97;;;2.20;86.60;;;;;;6243677;28;20203;-61
2022/04/04 00:41:08;;;;;;;21.43;13.93;;;2.20;86.10;;;;;;6276921;28;20237;-61
2022/04/04 00:44:10;;;;;;;15.93;12.40;;;2.20;85.90;;;;;;6279411;28;20273;-60
2022/04/04 00:47:11;;;;;;;22.57;15.83;;;2.10;86.20;;;;;;6241101;28;20201;-61
2022/04/04 00:50:12;;;;;;;21.47;14.57;;;2.10;86.40;;;;;;6238406;28;20192;-61
2022/04/04 00:53:13;;;;;;;17.23;14.00;;;2.00;86.90;;;;;;6236822;28;20202;-62
2022/04/04 00:56:14;;;;;;;20.97;15.60;;;2.00;86.90;;;;;;6236609;28;20189;-62
2022/04/04 00:59:17;;;;;;;23.73;15.50;;;2.00;87.60;;;;;;6254347;28;20209;-62
2022/04/04 01:02:19;;;;;;;19.50;13.80;;;2.00;87.60;;;;;;6224945;28;20225;-63
2022/04/04 01:05:19;;;;;;;19.20;14.50;;;1.90;87.00;;;;;;6242101;28;20190;-62
2022/04/04 01:08:21;;;;;;;23.33;15.77;;;2.00;87.50;;;;;;6242894;28;20196;-64
2022/04/04 01:11:22;;;;;;;19.87;14.93;;;1.90;87.30;;;;;;6259959;28;20204;-64
2022/04/04 01:14:23;;;;;;;18.90;14.23;;;1.80;87.70;;;;;;6263913;28;20193;-63
2022/04/04 01:17:25;;;;;;;15.80;12.63;;;1.90;87.20;;;;;;6261152;28;20287;-63
2022/04/04 01:20:26;;;;;;;20.00;14.60;;;1.90;87.70;;;;;;6263488;28;20274;-63
2022/04/04 01:23:34;;;;;;;24.73;15.33;;;2.00;88.10;;;;;;6276390;28;20189;-63
2022/04/04 01:26:35;;;;;;;16.60;14.00;;;2.00;87.90;;;;;;6280046;28;20264;-61
2022/04/04 01:29:36;;;;;;;19.87;14.80;;;1.90;87.40;;;;;;6263012;28;20275;-61
2022/04/04 01:32:37;;;;;;;21.07;15.27;;;1.80;87.40;;;;;;6239416;28;20197;-62
2022/04/04 01:35:38;;;;;;;19.50;14.63;;;1.90;88.10;;;;;;6240574;28;20215;-63
2022/04/04 01:38:39;;;;;;;19.13;14.20;;;1.90;88.10;;;;;;6241481;28;20185;-62
2022/04/04 01:41:39;;;;;;;19.23;14.93;;;1.80;87.00;;;;;;6240008;28;20191;-62
2022/04/04 01:44:40;;;;;;;21.77;14.63;;;1.60;86.90;;;;;;6244696;28;20199;-63
2022/04/04 01:47:42;;;;;;;18.87;14.67;;;1.50;87.50;;;;;;6230223;28;20181;-63
2022/04/04 01:50:43;;;;;;;19.87;14.37;;;1.60;87.90;;;;;;6262543;28;20196;-62
2022/04/04 01:53:45;;;;;;;22.97;15.53;;;1.60;88.10;;;;;;6267336;28;20246;-63
2022/04/04 01:56:46;;;;;;;22.13;16.07;;;1.60;88.00;;;;;;6281951;28;20180;-62
2022/04/04 01:59:47;;;;;;;22.13;16.73;;;1.60;88.00;;;;;;6261886;28;20239;-62
2022/04/04 02:02:47;;;;;;;19.73;14.67;;;1.70;88.00;;;;;;6259134;28;20197;-62
2022/04/04 02:05:48;;;;;;;21.37;15.13;;;1.70;88.10;;;;;;6261497;28;20181;-62
2022/04/04 02:08:50;;;;;;;23.77;15.70;;;1.60;87.40;;;;;;6226937;28;20197;-62
2022/04/04 02:11:51;;;;;;;20.97;15.23;;;1.50;88.10;;;;;;6263189;28;20217;-61
2022/04/04 02:14:53;;;;;;;21.77;15.37;;;1.40;87.80;;;;;;6251112;28;20648;-63
2022/04/04 02:17:54;;;;;;;23.07;16.57;;;1.40;87.90;;;;;;6266771;28;20200;-62
2022/04/04 02:20:55;;;;;;;24.00;16.37;;;1.40;87.80;;;;;;6258389;28;20216;-61
2022/04/04 02:23:55;;;;;;;25.97;17.07;;;1.60;89.20;;;;;;6241683;28;20248;-63
2022/04/04 02:26:56;;;;;;;21.30;15.23;;;1.70;89.90;;;;;;6241462;28;20288;-62
2022/04/04 02:29:57;;;;;;;22.20;16.40;;;1.80;89.60;;;;;;6242441;28;20243;-63
2022/04/04 02:32:58;;;;;;;20.33;14.80;;;1.80;89.10;;;;;;6237596;28;20247;-62
2022/04/04 02:35:59;;;;;;;20.33;14.97;;;1.80;88.90;;;;;;6242025;28;20271;-63
2022/04/04 02:39:00;;;;;;;17.47;13.73;;;1.80;88.80;;;;;;6241590;28;20250;-63
2022/04/04 02:42:01;;;;;;;18.93;13.27;;;1.80;88.00;;;;;;6240580;28;20239;-63
2022/04/04 02:45:02;;;;;;;15.43;12.87;;;1.80;88.70;;;;;;6240133;28;20189;-62
2022/04/04 02:48:03;;;;;;;18.77;13.03;;;1.80;88.50;;;;;;6241132;28;20193;-63
2022/04/04 02:51:07;;;;;;;17.57;13.73;;;1.80;88.60;;;;;;6241399;28;20203;-63
2022/04/04 02:54:08;;;;;;;15.07;12.80;;;1.80;89.10;;;;;;6241763;28;20213;-63
2022/04/04 02:57:09;;;;;;;16.43;12.30;;;1.80;88.30;;;;;;6241567;28;20197;-64
2022/04/04 03:00:11;;;;;;;20.03;14.33;;;1.80;88.70;;;;;;6236741;28;20229;-64
2022/04/04 03:03:12;;;;;;;17.27;13.10;;;1.80;88.40;;;;;;6223922;28;20186;-63
2022/04/04 03:06:12;;;;;;;20.67;14.03;;;1.70;88.40;;;;;;6240729;28;20201;-63
2022/04/04 03:09:13;;;;;;;19.03;13.13;;;1.70;88.50;;;;;;6229555;28;20186;-63
2022/04/04 03:12:14;;;;;;;19.40;13.43;;;1.70;88.30;;;;;;6227969;28;20196;-62
2022/04/04 03:15:19;;;;;;;15.83;12.70;;;1.70;88.00;;;;;;6238998;28;20189;-62
2022/04/04 03:18:20;;;;;;;17.17;13.17;;;1.70;88.20;;;;;;6240725;28;20204;-63
2022/04/04 03:21:22;;;;;;;15.77;12.60;;;1.70;87.80;;;;;;6216428;28;20281;-63
2022/04/04 03:24:23;;;;;;;17.13;13.57;;;1.70;88.20;;;;;;6239665;28;20190;-63
2022/04/04 03:27:23;;;;;;;14.87;11.90;;;1.70;87.50;;;;;;6239222;28;20259;-63
2022/04/04 03:30:29;;;;;;;16.20;12.57;;;1.70;87.60;;;;;;6225235;28;20205;-61
2022/04/04 03:33:31;;;;;;;17.87;12.93;;;1.60;88.40;;;;;;6257185;28;20283;-62
2022/04/04 03:36:32;;;;;;;15.83;12.30;;;1.60;88.70;;;;;;6249026;28;20219;-62
2022/04/04 03:39:32;;;;;;;18.73;14.60;;;1.60;88.30;;;;;;6260815;28;20212;-62
2022/04/04 03:42:34;;;;;;;18.33;12.90;;;1.50;88.80;;;;;;6261430;28;20214;-62
2022/04/04 03:45:35;;;;;;;18.50;13.37;;;1.60;88.90;;;;;;6243954;28;20185;-63
2022/04/04 03:48:36;;;;;;;18.03;13.00;;;1.50;89.10;;;;;;6248793;28;20212;-62
2022/04/04 03:51:37;;;;;;;18.97;13.47;;;1.60;88.60;;;;;;6271805;28;20205;-62
2022/04/04 03:54:38;;;;;;;16.60;12.50;;;1.50;88.50;;;;;;6244303;28;20221;-61
2022/04/04 03:57:40;;;;;;;16.93;13.77;;;1.50;88.50;;;;;;6267875;28;20185;-61
2022/04/04 04:00:41;;;;;;;16.07;12.50;;;1.50;89.30;;;;;;6256782;28;20240;-61
2022/04/04 04:03:42;;;;;;;18.43;13.40;;;1.50;88.60;;;;;;6230411;28;20385;-61
2022/04/04 04:06:43;;;;;;;17.83;13.17;;;1.60;89.10;;;;;;6260468;28;20199;-62
2022/04/04 04:09:44;;;;;;;17.93;13.47;;;1.60;89.40;;;;;;6259189;28;20216;-61
2022/04/04 04:12:46;;;;;;;19.70;13.90;;;1.60;89.50;;;;;;6257124;28;20628;-62
2022/04/04 04:15:47;;;;;;;18.87;14.03;;;1.60;89.40;;;;;;6243943;28;20196;-62
2022/04/04 04:18:47;;;;;;;20.83;13.70;;;1.60;88.80;;;;;;6230186;28;20181;-62
2022/04/04 04:21:49;;;;;;;17.53;14.03;;;1.60;89.20;;;;;;6247874;28;20193;-62
2022/04/04 04:24:50;;;;;;;19.23;13.30;;;1.60;88.70;;;;;;6233358;28;20236;-62
2022/04/04 04:27:51;;;;;;;16.10;13.17;;;1.60;89.10;;;;;;6256728;28;20232;-63
2022/04/04 04:30:52;;;;;;;18.10;13.37;;;1.80;89.00;;;;;;6327311;28;20230;-61
2022/04/04 04:33:53;;;;;;;17.10;13.13;;;1.80;88.40;;;;;;6285272;28;20201;-61
2022/04/04 04:36:54;;;;;;;19.63;14.50;;;1.70;88.50;;;;;;6298953;28;20194;-61
2022/04/04 04:39:55;;;;;;;16.97;12.83;;;1.60;87.60;;;;;;6296086;28;20203;-61
2022/04/04 04:42:57;;;;;;;16.07;12.57;;;1.60;87.60;;;;;;6279384;28;20233;-61
2022/04/04 04:45:58;;;;;;;19.53;13.13;;;1.60;87.40;;;;;;6275555;28;20272;-61
2022/04/04 04:48:58;;;;;;;15.77;13.17;;;1.70;88.40;;;;;;6272051;28;20184;-63
2022/04/04 04:52:00;;;;;;;18.20;13.27;;;1.70;87.40;;;;;;6296331;28;20178;-61
2022/04/04 04:55:02;;;;;;;16.50;13.23;;;1.60;87.40;;;;;;6278593;28;20221;-62
2022/04/04 04:58:03;;;;;;;17.37;13.67;;;1.60;88.10;;;;;;6264837;28;20202;-63
2022/04/04 05:01:03;;;;;;;20.27;14.00;;;1.60;88.20;;;;;;6286098;28;20212;-62
2022/04/04 05:04:04;;;;;;;17.03;13.37;;;1.60;88.40;;;;;;6290536;28;20183;-61
2022/04/04 05:07:08;;;;;;;19.97;13.93;;;1.60;88.00;;;;;;6300638;28;20192;-61
2022/04/04 05:10:09;;;;;;;16.77;12.63;;;1.60;87.20;;;;;;6304495;28;20196;-61
2022/04/04 05:13:09;;;;;;;19.03;14.07;;;1.60;87.70;;;;;;6295727;28;20185;-62
2022/04/04 05:16:14;;;;;;;16.23;11.80;;;1.50;88.00;;;;;;6308195;28;20188;-62
2022/04/04 05:19:25;;;;;;;17.60;13.13;;;1.60;88.50;;;;;;6291664;28;20215;-62
2022/04/04 05:22:26;;;;;;;16.33;13.27;;;1.70;88.20;;;;;;6308676;28;20189;-62
2022/04/04 05:25:27;;;;;;;17.30;13.70;;;1.60;87.50;;;;;;6285212;28;20236;-62
2022/04/04 05:28:28;;;;;;;20.13;14.23;;;1.70;87.40;;;;;;6260149;28;20290;-62
2022/04/04 05:31:30;;;;;;;19.50;13.77;;;1.60;86.60;;;;;;6266628;28;20288;-62
2022/04/04 05:34:31;;;;;;;17.70;13.50;;;1.50;87.50;;;;;;6274513;28;20201;-62
2022/04/04 05:37:33;;;;;;;16.23;13.27;;;1.60;87.50;;;;;;6276316;28;20189;-63
2022/04/04 05:40:34;;;;;;;19.00;13.43;;;1.70;87.20;;;;;;6292688;28;20221;-63
2022/04/04 05:43:36;;;;;;;21.43;13.80;;;1.60;87.50;;;;;;6283125;28;20190;-62
2022/04/04 05:46:36;;;;;;;16.50;12.73;;;1.60;87.50;;;;;;6276515;28;20186;-62
2022/04/04 05:49:38;;;;;;;18.23;13.50;;;1.60;86.00;;;;;;6275840;28;20212;-62
2022/04/04 05:52:38;;;;;;;15.80;11.50;;;1.60;86.80;;;;;;6293443;28;20195;-62
2022/04/04 05:55:39;;;;;;;15.70;12.00;;;1.60;85.10;;;;;;6277090;28;20217;-62
2022/04/04 05:58:40;;;;;;;13.87;11.60;;;1.60;84.90;;;;;;6291610;28;20272;-62
2022/04/04 06:01:41;;;;;;;15.20;11.43;;;1.60;85.50;;;;;;6284675;28;20320;-62
2022/04/04 06:04:42;;;;;;;13.87;10.77;;;1.60;85.80;;;;;;6277919;28;20194;-62
2022/04/04 06:07:43;;;;;;;16.27;11.40;;;1.70;85.00;;;;;;6271487;28;20261;-62
2022/04/04 06:10:47;;;;;;;15.37;11.80;;;1.80;86.30;;;;;;6288936;28;20249;-62
2022/04/04 06:13:48;;;;;;;16.50;11.10;;;1.80;86.30;;;;;;6288977;28;20331;-62
2022/04/04 06:16:49;;;;;;;14.67;10.87;;;1.80;86.10;;;;;;6289755;28;20186;-62
2022/04/04 06:19:49;;;;;;;15.10;10.67;;;1.80;86.60;;;;;;6288745;28;20205;-62
2022/04/04 06:22:50;;;;;;;14.30;11.23;;;1.90;86.90;;;;;;6272601;28;20208;-62
2022/04/04 06:25:51;;;;;;;13.23;10.47;;;1.90;86.90;;;;;;6265237;28;20246;-62
2022/04/04 06:28:52;;;;;;;14.33;11.50;;;2.00;85.60;;;;;;6272558;28;20316;-62
2022/04/04 06:31:53;;;;;;;16.63;11.67;;;2.00;86.80;;;;;;6272929;28;20189;-62
2022/04/04 06:34:54;;;;;;;16.70;11.87;;;2.00;86.60;;;;;;6266694;28;20221;-62
2022/04/04 06:37:55;;;;;;;14.60;11.80;;;2.10;86.10;;;;;;6272243;28;20192;-61
2022/04/04 06:40:56;;;;;;;16.10;11.73;;;2.10;86.50;;;;;;6272047;28;20259;-61
2022/04/04 06:43:58;;;;;;;15.50;11.47;;;2.10;86.90;;;;;;6264026;28;20210;-60
2022/04/04 06:46:59;;;;;;;13.97;11.47;;;2.10;85.50;;;;;;6248013;28;20195;-60
2022/04/04 06:50:00;;;;;;;16.37;12.57;;;2.10;86.70;;;;;;6248522;28;20195;-60
2022/04/04 06:53:01;;;;;;;14.57;11.60;;;2.00;86.80;;;;;;6262621;28;20199;-60
2022/04/04 06:56:02;;;;;;;14.70;10.40;;;1.90;86.00;;;;;;6263411;28;20189;-60
2022/04/04 06:59:03;;;;;;;13.40;11.07;;;1.90;84.90;;;;;;6270411;28;20190;-60
2022/04/04 07:02:04;;;;;;;12.97;9.63;;;2.00;86.40;;;;;;6271259;28;20190;-60
2022/04/04 07:05:05;;;;;;;13.57;10.33;;;1.90;85.30;;;;;;6270129;28;20236;-60
2022/04/04 07:08:06;;;;;;;14.03;11.67;;;2.00;86.10;;;;;;6270369;28;20194;-61
2022/04/04 07:11:10;;;;;;;16.33;11.57;;;2.00;85.90;;;;;;6287943;28;20200;-61
2022/04/04 07:14:11;;;;;;;14.20;11.03;;;2.10;86.90;;;;;;6286402;28;20276;-61
2022/04/04 07:17:11;;;;;;;14.57;11.70;;;2.20;86.40;;;;;;6271324;28;20197;-62
2022/04/04 07:20:13;;;;;;;14.97;10.83;;;2.20;86.40;;;;;;6264507;28;20699;-61
2022/04/04 07:23:14;;;;;;;15.53;11.00;;;2.20;84.90;;;;;;6269413;28;20182;-61
2022/04/04 07:26:19;;;;;;;15.90;10.83;;;2.30;86.00;;;;;;6288795;28;20239;-61
2022/04/04 07:29:19;;;;;;;15.60;10.37;;;2.30;84.30;;;;;;6271728;28;20238;-61
2022/04/04 07:32:20;;;;;;;13.67;10.80;;;2.40;84.30;;;;;;6286639;28;20198;-61
2022/04/04 07:35:22;;;;;;;13.87;10.20;;;2.40;85.30;;;;;;6288064;28;20200;-61
2022/04/04 07:38:22;;;;;;;12.17;9.97;;;2.50;84.20;;;;;;6288064;28;20290;-61
2022/04/04 07:41:23;;;;;;;14.27;10.23;;;2.60;85.00;;;;;;6244943;28;20255;-62
2022/04/04 07:44:24;;;;;;;11.90;9.70;;;2.80;84.40;;;;;;6271005;28;20285;-61
2022/04/04 07:47:25;;;;;;;12.73;9.33;;;2.80;84.20;;;;;;6270754;28;20223;-61
2022/04/04 07:50:27;;;;;;;11.63;9.90;;;2.90;83.40;;;;;;6271469;28;20197;-62
2022/04/04 07:53:27;;;;;;;10.50;9.20;;;2.90;83.10;;;;;;6288288;28;20378;-62
2022/04/04 07:56:29;;;;;;;12.57;10.30;;;3.00;83.00;;;;;;6286406;28;20189;-61
2022/04/04 07:59:29;;;;;;;13.50;9.73;;;2.90;81.70;;;;;;6266465;28;20205;-61
2022/04/04 08:02:30;;;;;;;25.13;20.13;;;3.00;84.70;;;;;;6304514;28;20216;-61
2022/04/04 08:05:31;;;;;;;13.53;12.13;;;3.00;84.20;;;;;;6277246;28;20193;-61
2022/04/04 08:08:32;;;;;;;13.70;10.43;;;3.00;83.50;;;;;;6261874;28;20197;-61
2022/04/04 08:11:33;;;;;;;9.93;8.83;;;2.80;82.20;;;;;;6262273;28;20220;-62
2022/04/04 08:14:36;;;;;;;14.13;10.00;;;2.70;80.60;;;;;;6286159;28;20517;-61
2022/04/04 08:17:38;;;;;;;11.67;9.43;;;2.80;83.40;;;;;;6269765;28;20201;-61
2022/04/04 08:20:38;;;;;;;12.30;9.53;;;2.80;81.00;;;;;;6286122;28;20206;-62
2022/04/04 08:23:39;;;;;;;14.77;9.93;;;2.90;82.70;;;;;;6269555;28;20231;-62
2022/04/04 08:26:41;;;;;;;12.83;10.30;;;2.90;84.10;;;;;;6269268;28;20186;-62
2022/04/04 08:29:42;;;;;;;13.80;9.90;;;3.10;83.80;;;;;;6268479;28;20333;-61
2022/04/04 08:32:44;;;;;;;12.80;10.60;;;3.10;82.40;;;;;;6269959;28;20181;-61
2022/04/04 08:35:45;;;;;;;13.40;10.93;;;3.00;82.20;;;;;;6285247;28;20221;-61
2022/04/04 08:38:46;;;;;;;10.93;9.73;;;3.00;82.80;;;;;;6286566;28;20208;-62
2022/04/04 08:41:47;;;;;;;11.03;9.40;;;3.00;81.40;;;;;;6293200;28;20211;-61
2022/04/04 08:44:49;;;;;;;11.90;10.20;;;3.00;80.20;;;;;;6268912;28;20182;-62
2022/04/04 08:47:49;;;;;;;12.13;9.63;;;2.80;80.40;;;;;;6269398;28;20190;-61
2022/04/04 08:50:50;;;;;;;13.03;10.40;;;2.90;81.80;;;;;;6268768;28;20197;-61
2022/04/04 08:53:51;;;;;;;13.17;10.30;;;3.00;82.10;;;;;;6267610;28;20194;-62
2022/04/04 08:56:52;;;;;;;13.87;10.53;;;3.00;81.50;;;;;;6268462;28;20197;-62
2022/04/04 08:59:53;;;;;;;13.87;10.37;;;3.10;81.00;;;;;;6262403;28;20217;-62
2022/04/04 09:03:04;;;;;;;11.30;8.83;;;3.30;81.70;;;;;;6268913;28;20196;-62
2022/04/04 09:06:05;;;;;;;12.90;10.10;;;3.30;80.60;;;;;;6284148;28;20186;-62
2022/04/04 09:09:06;;;;;;;12.57;9.53;;;3.40;79.50;;;;;;6268477;28;20187;-62
2022/04/04 09:12:08;;;;;;;13.40;10.87;;;3.40;81.00;;;;;;6268817;28;20271;-62
2022/04/04 09:15:09;;;;;;;15.37;11.53;;;3.50;83.50;;;;;;6284492;28;20204;-62
2022/04/04 09:18:11;;;;;;;11.60;9.90;;;3.40;79.90;;;;;;6286045;28;20184;-61
2022/04/04 09:21:18;;;;;;;13.43;10.30;;;3.50;78.60;;;;;;6252823;28;20264;-62
2022/04/04 09:24:18;;;;;;;13.67;9.70;;;3.50;80.70;;;;;;6285288;28;20186;-61
2022/04/04 09:27:25;;;;;;;9.97;8.57;;;3.60;78.30;;;;;;6285800;28;20288;-61
2022/04/04 09:30:26;;;;;;;13.80;11.60;;;3.70;79.20;;;;;;6235707;28;20256;-61
2022/04/04 09:33:40;;;;;;;11.83;9.13;;;3.90;82.10;;;;;;6234160;28;20197;-62
2022/04/04 09:36:46;;;;;;;12.43;10.63;;;3.90;78.30;;;;;;6252314;28;20222;-62
2022/04/04 09:39:49;;;;;;;10.60;9.20;;;3.90;79.40;;;;;;6252535;28;20226;-62
2022/04/04 09:42:53;;;;;;;11.30;9.00;;;3.90;79.40;;;;;;6252126;28;20221;-62
2022/04/04 09:46:09;;;;;;;11.63;10.40;;;3.80;76.70;;;;;;6268883;28;20281;-62
2022/04/04 09:49:20;;;;;;;11.87;9.97;;;3.80;78.80;;;;;;6251130;28;20217;-61
2022/04/04 09:52:21;;;;;;;10.93;9.50;;;3.70;76.90;;;;;;6251409;28;20182;-60
2022/04/04 09:55:31;;;;;;;13.83;10.03;;;3.80;79.20;;;;;;6237911;28;20228;-61
2022/04/04 09:58:33;;;;;;;13.03;10.50;;;3.80;81.20;;;;;;6255611;28;20182;-62
2022/04/04 10:01:34;;;;;;;9.87;8.87;;;3.90;80.00;;;;;;6239669;28;20225;-61
2022/04/04 10:04:35;;;;;;;13.90;10.33;;;3.90;79.30;;;;;;6239358;28;20199;-61
2022/04/04 10:07:37;;;;;;;14.40;10.80;;;4.00;80.00;;;;;;6239522;28;20231;-62
2022/04/04 10:10:38;;;;;;;15.30;11.00;;;4.10;80.50;;;;;;6226160;28;20211;-62
2022/04/04 10:13:39;;;;;;;12.10;10.10;;;4.20;78.60;;;;;;6222832;28;20193;-62
2022/04/04 10:16:40;;;;;;;12.37;10.03;;;4.20;76.40;;;;;;6239057;28;20197;-62
2022/04/04 10:19:42;;;;;;;13.03;10.33;;;4.20;76.30;;;;;;6238782;28;20231;-62
2022/04/04 10:22:44;;;;;;;10.77;9.33;;;4.60;80.00;;;;;;6255929;28;20193;-61
2022/04/04 10:25:49;;;;;;;11.70;9.70;;;4.70;75.60;;;;;;6254880;28;20198;-61
2022/04/04 10:28:50;;;;;;;12.83;10.67;;;4.70;76.40;;;;;;6256894;28;20230;-61
2022/04/04 10:31:53;;;;;;;13.17;10.70;;;4.60;76.20;;;;;;6240165;28;20244;-61
2022/04/04 10:34:55;;;;;;;11.60;9.80;;;4.60;79.00;;;;;;6237626;28;20258;-61
2022/04/04 10:37:59;;;;;;;13.87;10.30;;;4.40;73.90;;;;;;6272566;28;20166;-61
2022/04/04 10:41:07;;;;;;;13.47;11.07;;;4.50;75.20;;;;;;6255541;28;20254;-62
2022/04/04 10:44:08;;;;;;;14.20;10.10;;;4.50;75.20;;;;;;6238460;28;20201;-62
2022/04/04 10:47:30;;;;;;;13.80;11.00;;;4.60;73.90;;;;;;6239197;28;20261;-61
2022/04/04 10:50:33;;;;;;;12.83;10.90;;;5.00;80.10;;;;;;6236953;28;20196;-62
2022/04/04 10:53:38;;;;;;;13.60;9.67;;;5.30;79.10;;;;;;6221041;28;20201;-62
2022/04/04 10:56:41;;;;;;;14.70;10.90;;;5.50;75.40;;;;;;6259375;28;20200;-62
2022/04/04 10:59:45;;;;;;;12.47;9.57;;;5.40;76.90;;;;;;6259297;28;20228;-62
2022/04/04 11:02:49;;;;;;;10.83;9.30;;;5.70;73.00;;;;;;6260409;28;20220;-62
2022/04/04 11:09:46;;;;;;;11.50;9.73;;;6.10;74.70;;;;;;6258109;28;20190;-63
2022/04/04 11:13:08;;;;;;;11.23;10.13;;;6.10;72.40;;;;;;6250168;28;20202;-62
2022/04/04 11:16:10;;;;;;;12.07;10.33;;;6.30;70.90;;;;;;6233883;28;20178;-62
2022/04/04 11:19:12;;;;;;;13.80;10.37;;;6.30;72.20;;;;;;6217325;28;20193;-62
2022/04/04 11:22:18;;;;;;;14.57;10.10;;;6.40;74.10;;;;;;6217481;28;20724;-62
2022/04/04 11:25:21;;;;;;;12.73;9.40;;;6.40;69.10;;;;;;6254914;28;20189;-62
2022/04/04 11:28:25;;;;;;;12.10;9.70;;;6.80;72.60;;;;;;6299398;28;20233;-62
2022/04/04 11:31:26;;;;;;;12.67;9.27;;;7.00;71.20;;;;;;6274614;28;20190;-61
2022/04/04 11:34:30;;;;;;;12.47;9.80;;;6.90;71.50;;;;;;6242593;28;20271;-61
2022/04/04 11:37:32;;;;;;;10.13;8.87;;;7.10;67.30;;;;;;6257753;28;20237;-61
2022/04/04 11:40:38;;;;;;;9.77;8.10;;;6.80;65.00;;;;;;6241567;28;20297;-62
2022/04/04 11:43:40;;;;;;;9.50;8.50;;;6.70;66.00;;;;;;6263072;28;20186;-62
2022/04/04 11:46:41;;;;;;;10.40;9.30;;;6.70;65.90;;;;;;6275470;28;20244;-61
2022/04/04 11:49:42;;;;;;;11.93;9.47;;;7.10;67.90;;;;;;6245692;28;20221;-61
2022/04/04 11:52:49;;;;;;;10.47;9.37;;;6.80;67.20;;;;;;6216581;28;20191;-61
2022/04/04 11:55:50;;;;;;;10.27;8.93;;;6.60;67.30;;;;;;6233234;28;20190;-61
2022/04/04 11:58:54;;;;;;;10.80;8.77;;;6.50;63.80;;;;;;6232211;28;20204;-61
2022/04/04 12:01:58;;;;;;;11.13;8.60;;;6.50;69.40;;;;;;6228735;28;20700;-61
2022/04/04 12:05:00;;;;;;;9.93;8.90;;;6.90;69.90;;;;;;6254437;28;20218;-60
2022/04/04 12:08:02;;;;;;;10.60;9.20;;;7.00;68.00;;;;;;6224889;28;20220;-60
2022/04/04 12:11:05;;;;;;;11.37;8.93;;;7.20;65.00;;;;;;6281911;28;20204;-61
2022/04/04 12:14:11;;;;;;;10.13;9.20;;;7.10;66.70;;;;;;6255318;28;20203;-61
2022/04/04 12:17:12;;;;;;;8.90;7.97;;;6.80;67.70;;;;;;6241236;28;20182;-61
2022/04/04 12:20:13;;;;;;;10.70;8.30;;;6.90;66.70;;;;;;6260142;28;20219;-61
2022/04/04 12:26:38;;;;;;;9.57;8.57;;;7.40;64.90;;;;;;6298619;28;20190;-61
2022/04/04 12:29:41;;;;;;;11.43;7.40;;;7.80;64.70;;;;;;6253345;28;20239;-61
2022/04/04 12:32:41;;;;;;;8.97;8.07;;;8.70;61.50;;;;;;6292517;28;20192;-61
2022/04/04 12:35:44;;;;;;;10.13;8.40;;;9.30;60.90;;;;;;6263911;28;20193;-61
2022/04/04 12:38:44;;;;;;;11.93;8.67;;;9.50;59.80;;;;;;6304790;28;20181;-61
2022/04/04 12:41:46;;;;;;;8.13;7.33;;;9.90;62.20;;;;;;6276874;28;20219;-61
2022/04/04 12:44:54;;;;;;;9.17;6.90;;;11.00;58.80;;;;;;6290540;28;20187;-61
2022/04/04 12:47:57;;;;;;;10.00;7.27;;;12.10;56.70;;;;;;6313417;28;20273;-61
2022/04/04 12:50:57;;;;;;;9.17;8.13;;;13.00;50.90;;;;;;6286422;28;20327;-59
2022/04/04 12:54:02;;;;;;;8.17;7.47;;;13.30;45.70;;;;;;6291306;28;20188;-59
2022/04/04 12:57:08;;;;;;;8.07;7.47;;;13.70;46.10;;;;;;6298357;28;20177;-58
2022/04/04 13:00:10;;;;;;;9.10;8.23;;;15.40;43.70;;;;;;6318843;28;20220;-59
2022/04/04 13:03:26;;;;;;;7.80;7.10;;;16.20;40.40;;;;;;6291748;28;20189;-59
2022/04/04 13:06:31;;;;;;;7.80;7.00;;;16.70;40.50;;;;;;6293543;28;20190;-59
2022/04/04 13:09:34;;;;;;;8.30;7.60;;;16.70;39.50;;;;;;6272682;28;20194;-59
2022/04/04 13:12:38;;;;;;;8.57;7.77;;;16.10;39.80;;;;;;6305610;28;20189;-59
2022/04/04 13:15:40;;;;;;;8.67;7.83;;;14.00;41.60;;;;;;6277097;28;20187;-58
2022/04/04 13:18:41;;;;;;;9.33;8.53;;;12.20;47.90;;;;;;6265192;28;20182;-58
2022/04/04 13:21:44;;;;;;;8.33;7.57;;;11.30;50.80;;;;;;6262134;28;20240;-59
2022/04/04 13:24:45;;;;;;;8.00;7.20;;;11.20;50.80;;;;;;6289167;28;20195;-61
2022/04/04 13:27:45;;;;;;;8.80;7.70;;;11.30;48.00;;;;;;6297683;28;20235;-61
2022/04/04 13:30:46;;;;;;;9.00;8.17;;;10.30;51.10;;;;;;6269044;28;20182;-61
2022/04/04 13:33:49;;;;;;;9.87;8.07;;;10.00;51.20;;;;;;6302477;28;20308;-62
2022/04/04 13:36:49;;;;;;;8.60;7.63;;;9.60;54.80;;;;;;6263273;28;20191;-61
2022/04/04 13:39:50;;;;;;;8.40;7.63;;;9.70;54.10;;;;;;6269778;28;20215;-61
2022/04/04 13:42:51;;;;;;;7.50;6.77;;;10.10;53.00;;;;;;6249960;28;20181;-61
2022/04/04 13:45:54;;;;;;;9.53;8.13;;;10.30;51.40;;;;;;6264416;28;20189;-62
2022/04/04 13:48:56;;;;;;;10.87;7.60;;;10.40;52.50;;;;;;6268964;28;20198;-61
2022/04/04 13:51:57;;;;;;;9.53;7.57;;;10.60;51.80;;;;;;6282153;28;20183;-62
2022/04/04 13:54:58;;;;;;;7.67;6.90;;;11.60;49.80;;;;;;6264292;28;20228;-62
2022/04/04 13:57:59;;;;;;;8.50;7.67;;;11.80;50.00;;;;;;6257750;28;20203;-62
2022/04/04 14:01:00;;;;;;;7.90;7.20;;;11.80;50.60;;;;;;6268912;28;20229;-62
2022/04/04 14:04:01;;;;;;;8.63;7.30;;;13.50;47.10;;;;;;6238981;28;20188;-59
2022/04/04 14:07:06;;;;;;;8.33;7.53;;;14.00;44.20;;;;;;6234424;28;20192;-60
2022/04/04 14:10:08;;;;;;;8.63;7.73;;;13.00;46.50;;;;;;6289270;28;20556;-60
2022/04/04 14:13:09;;;;;;;8.50;7.70;;;12.00;48.00;;;;;;6267056;28;20202;-60
2022/04/04 14:16:11;;;;;;;6.83;6.10;;;11.50;51.00;;;;;;6244931;28;20225;-60
2022/04/04 14:19:12;;;;;;;8.10;7.40;;;12.80;47.40;;;;;;6262746;28;20195;-61
2022/04/04 14:22:13;;;;;;;8.87;7.97;;;13.70;44.60;;;;;;6280970;28;20216;-60
2022/04/04 14:25:14;;;;;;;9.67;7.17;;;12.80;46.20;;;;;;6257009;28;20202;-60
2022/04/04 14:28:16;;;;;;;7.57;6.87;;;12.10;47.50;;;;;;6256403;28;20233;-60
2022/04/04 14:31:18;;;;;;;7.40;6.70;;;11.70;48.10;;;;;;6269522;28;20276;-60
2022/04/04 14:34:19;;;;;;;8.73;7.27;;;11.30;49.20;;;;;;6235717;28;20197;-60
2022/04/04 14:37:20;;;;;;;7.73;6.90;;;10.70;51.40;;;;;;6224529;28;20194;-60
2022/04/04 14:40:21;;;;;;;7.53;6.83;;;11.00;51.60;;;;;;6270664;28;20224;-61
2022/04/04 14:43:22;;;;;;;8.17;7.10;;;12.20;49.60;;;;;;6269301;28;20214;-61
2022/04/04 14:46:23;;;;;;;9.40;7.87;;;12.80;46.70;;;;;;6258790;28;20179;-60
2022/04/04 14:49:24;;;;;;;7.93;7.13;;;12.30;45.40;;;;;;6221734;28;20285;-60
2022/04/04 14:52:25;;;;;;;8.07;7.27;;;11.40;48.40;;;;;;6260887;28;20276;-60
2022/04/04 14:55:26;;;;;;;7.43;6.67;;;11.30;49.00;;;;;;6263009;28;20185;-60
2022/04/04 14:58:27;;;;;;;7.73;6.93;;;12.90;47.40;;;;;;6266955;28;20189;-62
2022/04/04 15:01:28;;;;;;;7.63;6.83;;;13.60;45.10;;;;;;6241385;28;20307;-60
2022/04/04 15:04:30;;;;;;;8.67;6.73;;;14.10;44.40;;;;;;6258089;28;20253;-61
2022/04/04 15:07:31;;;;;;;11.03;7.13;;;15.00;41.70;;;;;;6236502;28;20281;-61
2022/04/04 15:10:32;;;;;;;6.77;6.17;;;15.70;40.30;;;;;;6242764;28;20212;-61
2022/04/04 15:13:33;;;;;;;8.10;7.10;;;16.30;40.60;;;;;;6259095;28;20218;-61
2022/04/04 15:16:33;;;;;;;6.13;5.53;;;16.80;38.50;;;;;;6215877;28;20301;-60
2022/04/04 15:19:34;;;;;;;7.13;6.53;;;16.80;40.00;;;;;;6225875;28;20213;-61
2022/04/04 15:22:35;;;;;;;7.10;6.43;;;17.10;37.10;;;;;;6210808;28;20541;-61
2022/04/04 15:25:36;;;;;;;8.00;7.30;;;16.10;38.40;;;;;;6260496;28;20205;-61
2022/04/04 15:28:36;;;;;;;7.57;6.40;;;14.20;41.30;;;;;;6263035;28;20237;-60
2022/04/04 15:31:38;;;;;;;9.13;7.60;;;13.80;42.60;;;;;;6268771;28;20190;-60
2022/04/04 15:34:39;;;;;;;9.47;6.13;;;13.70;44.80;;;;;;6292036;28;20212;-61
2022/04/04 15:37:41;;;;;;;8.13;7.33;;;13.20;44.80;;;;;;6273281;28;20201;-61
2022/04/04 15:40:42;;;;;;;7.87;7.23;;;13.30;44.20;;;;;;6291247;28;20347;-62
2022/04/04 15:43:46;;;;;;;9.97;7.23;;;12.80;47.10;;;;;;6274540;28;20277;-61
2022/04/04 15:46:47;;;;;;;7.93;7.13;;;12.60;47.70;;;;;;6287960;28;20221;-61